sensor_id;sensor_type;location;lat;lon;timestamp;P1;durP1;ratioP1;P2;durP2;ratioP2
6093;SDS011;19964;42.060;24.700;2023-07-16T05:36:22;7.82;;;6.93;;
6093;SDS011;19964;42.060;24.700;2023-07-16T06:42:29;8.40;;;6.43;;
6093;SDS011;19964;42.060;24.700;2023-07-16T06:44:56;8.18;;;7.10;;
6093;SDS011;19964;42.060;24.700;2023-07-16T06:47:23;7.65;;;6.88;;
6093;SDS011;19964;42.060;24.700;2023-07-16T06:49:49;8.32;;;7.38;;
6093;SDS011;19964;42.060;24.700;2023-07-16T06:52:20;8.13;;;6.70;;
6093;SDS011;19964;42.060;24.700;2023-07-16T06:54:47;11.20;;;7.95;;
6093;SDS011;19964;42.060;24.700;2023-07-16T06:57:16;7.57;;;7.07;;
6093;SDS011;19964;42.060;24.700;2023-07-16T06:59:42;10.93;;;7.38;;
6093;SDS011;19964;42.060;24.700;2023-07-16T07:02:12;10.63;;;7.00;;
6093;SDS011;19964;42.060;24.700;2023-07-16T07:04:39;9.43;;;7.22;;
6093;SDS011;19964;42.060;24.700;2023-07-16T07:07:06;7.47;;;6.78;;
6093;SDS011;19964;42.060;24.700;2023-07-16T07:09:33;8.75;;;7.35;;
6093;SDS011;19964;42.060;24.700;2023-07-16T07:12:00;7.03;;;6.43;;
6093;SDS011;19964;42.060;24.700;2023-07-16T07:14:29;8.02;;;7.22;;
6093;SDS011;19964;42.060;24.700;2023-07-16T07:16:57;8.65;;;7.57;;
6093;SDS011;19964;42.060;24.700;2023-07-16T07:19:23;8.85;;;7.45;;
6093;SDS011;19964;42.060;24.700;2023-07-16T07:21:50;8.43;;;7.70;;
6093;SDS011;19964;42.060;24.700;2023-07-16T07:24:17;10.77;;;8.18;;
6093;SDS011;19964;42.060;24.700;2023-07-16T07:26:44;9.40;;;7.43;;
6093;SDS011;19964;42.060;24.700;2023-07-16T07:29:11;8.65;;;7.95;;
6093;SDS011;19964;42.060;24.700;2023-07-16T07:31:40;8.68;;;7.57;;
6093;SDS011;19964;42.060;24.700;2023-07-16T07:34:06;8.52;;;7.50;;
6093;SDS011;19964;42.060;24.700;2023-07-16T07:36:33;10.02;;;7.60;;
6093;SDS011;19964;42.060;24.700;2023-07-16T07:39:00;8.00;;;7.35;;
6093;SDS011;19964;42.060;24.700;2023-07-16T07:41:27;9.95;;;7.63;;
6093;SDS011;19964;42.060;24.700;2023-07-16T07:43:54;9.02;;;7.72;;
6093;SDS011;19964;42.060;24.700;2023-07-16T07:46:21;11.13;;;7.53;;
6093;SDS011;19964;42.060;24.700;2023-07-16T07:48:49;10.65;;;8.10;;
6093;SDS011;19964;42.060;24.700;2023-07-16T07:51:16;10.57;;;7.75;;
6093;SDS011;19964;42.060;24.700;2023-07-16T07:53:43;8.43;;;7.72;;
6093;SDS011;19964;42.060;24.700;2023-07-16T07:56:10;12.55;;;7.93;;
6093;SDS011;19964;42.060;24.700;2023-07-16T07:58:37;12.30;;;7.10;;
6093;SDS011;19964;42.060;24.700;2023-07-16T08:01:04;12.07;;;7.82;;
6093;SDS011;19964;42.060;24.700;2023-07-16T08:03:32;8.40;;;7.80;;
6093;SDS011;19964;42.060;24.700;2023-07-16T08:06:00;8.55;;;7.85;;
6093;SDS011;19964;42.060;24.700;2023-07-16T08:08:27;9.02;;;7.53;;
6093;SDS011;19964;42.060;24.700;2023-07-16T08:10:54;8.38;;;7.60;;
6093;SDS011;19964;42.060;24.700;2023-07-16T08:13:21;9.55;;;7.45;;
6093;SDS011;19964;42.060;24.700;2023-07-16T08:15:48;9.65;;;7.55;;
6093;SDS011;19964;42.060;24.700;2023-07-16T08:18:15;10.70;;;8.68;;
6093;SDS011;19964;42.060;24.700;2023-07-16T08:20:42;10.30;;;8.18;;
6093;SDS011;19964;42.060;24.700;2023-07-16T08:23:10;8.50;;;7.70;;
6093;SDS011;19964;42.060;24.700;2023-07-16T08:25:37;10.48;;;9.10;;
6093;SDS011;19964;42.060;24.700;2023-07-16T08:28:04;9.25;;;8.20;;
6093;SDS011;19964;42.060;24.700;2023-07-16T08:30:32;8.70;;;7.82;;
6093;SDS011;19964;42.060;24.700;2023-07-16T08:32:59;10.85;;;8.65;;
6093;SDS011;19964;42.060;24.700;2023-07-16T08:35:26;10.60;;;8.68;;
6093;SDS011;19964;42.060;24.700;2023-07-16T08:37:53;9.15;;;8.48;;
6093;SDS011;19964;42.060;24.700;2023-07-16T08:40:21;11.15;;;7.95;;
6093;SDS011;19964;42.060;24.700;2023-07-16T08:42:48;10.82;;;8.68;;
6093;SDS011;19964;42.060;24.700;2023-07-16T08:45:16;9.68;;;8.88;;
6093;SDS011;19964;42.060;24.700;2023-07-16T08:47:43;9.35;;;8.45;;
6093;SDS011;19964;42.060;24.700;2023-07-16T08:50:10;11.30;;;8.35;;
6093;SDS011;19964;42.060;24.700;2023-07-16T08:52:39;12.18;;;8.20;;
6093;SDS011;19964;42.060;24.700;2023-07-16T08:55:06;9.82;;;8.75;;
6093;SDS011;19964;42.060;24.700;2023-07-16T08:57:35;10.10;;;9.20;;
6093;SDS011;19964;42.060;24.700;2023-07-16T09:00:03;12.60;;;8.80;;
6093;SDS011;19964;42.060;24.700;2023-07-16T09:02:32;10.05;;;9.25;;
6093;SDS011;19964;42.060;24.700;2023-07-16T09:04:59;10.55;;;9.25;;
6093;SDS011;19964;42.060;24.700;2023-07-16T09:09:56;9.75;;;8.93;;
6093;SDS011;19964;42.060;24.700;2023-07-16T09:12:26;14.65;;;8.90;;
6093;SDS011;19964;42.060;24.700;2023-07-16T09:14:56;10.02;;;9.02;;
6093;SDS011;19964;42.060;24.700;2023-07-16T09:17:25;9.00;;;8.35;;
6093;SDS011;19964;42.060;24.700;2023-07-16T09:19:52;10.20;;;8.60;;
6093;SDS011;19964;42.060;24.700;2023-07-16T09:22:19;9.98;;;8.98;;
6093;SDS011;19964;42.060;24.700;2023-07-16T09:24:47;10.38;;;8.05;;
6093;SDS011;19964;42.060;24.700;2023-07-16T09:27:14;8.60;;;7.90;;
6093;SDS011;19964;42.060;24.700;2023-07-16T09:29:41;11.00;;;8.07;;
6093;SDS011;19964;42.060;24.700;2023-07-16T09:32:09;8.82;;;8.05;;
6093;SDS011;19964;42.060;24.700;2023-07-16T09:34:36;8.85;;;8.10;;
6093;SDS011;19964;42.060;24.700;2023-07-16T09:37:03;8.65;;;7.93;;
6093;SDS011;19964;42.060;24.700;2023-07-16T09:39:31;9.30;;;8.32;;
6093;SDS011;19964;42.060;24.700;2023-07-16T09:41:59;9.07;;;8.25;;
6093;SDS011;19964;42.060;24.700;2023-07-16T09:44:26;8.90;;;8.10;;
6093;SDS011;19964;42.060;24.700;2023-07-16T09:46:53;9.05;;;8.15;;
6093;SDS011;19964;42.060;24.700;2023-07-16T09:49:21;9.73;;;8.25;;
6093;SDS011;19964;42.060;24.700;2023-07-16T09:51:48;9.25;;;8.30;;
6093;SDS011;19964;42.060;24.700;2023-07-16T09:54:18;7.70;;;7.18;;
6093;SDS011;19964;42.060;24.700;2023-07-16T09:56:47;8.90;;;8.10;;
6093;SDS011;19964;42.060;24.700;2023-07-16T09:59:17;8.70;;;7.95;;
6093;SDS011;19964;42.060;24.700;2023-07-16T10:01:48;10.48;;;8.60;;
6093;SDS011;19964;42.060;24.700;2023-07-16T10:04:16;13.02;;;7.90;;
6093;SDS011;19964;42.060;24.700;2023-07-16T10:06:49;9.23;;;8.32;;
6093;SDS011;19964;42.060;24.700;2023-07-16T10:12:13;10.38;;;7.78;;
6093;SDS011;19964;42.060;24.700;2023-07-16T10:14:42;8.88;;;7.97;;
6093;SDS011;19964;42.060;24.700;2023-07-16T10:17:13;8.85;;;7.95;;
6093;SDS011;19964;42.060;24.700;2023-07-16T10:19:48;8.85;;;8.05;;
6093;SDS011;19964;42.060;24.700;2023-07-16T10:22:18;14.40;;;7.68;;
6093;SDS011;19964;42.060;24.700;2023-07-16T10:24:52;9.23;;;8.35;;
6093;SDS011;19964;42.060;24.700;2023-07-16T10:27:28;8.70;;;8.00;;
6093;SDS011;19964;42.060;24.700;2023-07-16T10:29:57;9.40;;;7.88;;
6093;SDS011;19964;42.060;24.700;2023-07-16T10:32:27;9.18;;;8.05;;
6093;SDS011;19964;42.060;24.700;2023-07-16T10:34:54;9.10;;;8.20;;
6093;SDS011;19964;42.060;24.700;2023-07-16T10:37:23;9.25;;;8.30;;
6093;SDS011;19964;42.060;24.700;2023-07-16T10:39:51;9.75;;;8.07;;
6093;SDS011;19964;42.060;24.700;2023-07-16T10:42:20;8.95;;;8.20;;
6093;SDS011;19964;42.060;24.700;2023-07-16T10:44:49;8.73;;;7.97;;
6093;SDS011;19964;42.060;24.700;2023-07-16T10:47:22;12.35;;;9.00;;
6093;SDS011;19964;42.060;24.700;2023-07-16T10:49:50;8.75;;;7.93;;
6093;SDS011;19964;42.060;24.700;2023-07-16T10:52:19;9.93;;;8.93;;
6093;SDS011;19964;42.060;24.700;2023-07-16T10:54:48;9.75;;;8.75;;
6093;SDS011;19964;42.060;24.700;2023-07-16T10:57:17;9.52;;;8.32;;
6093;SDS011;19964;42.060;24.700;2023-07-16T10:59:44;9.77;;;8.73;;
6093;SDS011;19964;42.060;24.700;2023-07-16T11:02:14;9.82;;;9.07;;
6093;SDS011;19964;42.060;24.700;2023-07-16T11:04:42;14.23;;;9.20;;
6093;SDS011;19964;42.060;24.700;2023-07-16T11:07:10;10.60;;;8.95;;
6093;SDS011;19964;42.060;24.700;2023-07-16T11:09:41;10.23;;;9.23;;
6093;SDS011;19964;42.060;24.700;2023-07-16T11:12:11;12.35;;;8.63;;
6093;SDS011;19964;42.060;24.700;2023-07-16T11:14:39;14.35;;;9.60;;
6093;SDS011;19964;42.060;24.700;2023-07-16T11:17:09;10.73;;;9.55;;
6093;SDS011;19964;42.060;24.700;2023-07-16T11:19:36;10.52;;;9.43;;
6093;SDS011;19964;42.060;24.700;2023-07-16T11:22:05;10.48;;;9.38;;
6093;SDS011;19964;42.060;24.700;2023-07-16T11:24:38;10.70;;;9.63;;
6093;SDS011;19964;42.060;24.700;2023-07-16T11:27:06;10.43;;;9.52;;
6093;SDS011;19964;42.060;24.700;2023-07-16T11:29:44;11.80;;;10.38;;
6093;SDS011;19964;42.060;24.700;2023-07-16T11:32:14;11.68;;;10.10;;
6093;SDS011;19964;42.060;24.700;2023-07-16T11:34:52;12.63;;;10.70;;
6093;SDS011;19964;42.060;24.700;2023-07-16T11:37:19;11.93;;;9.25;;
6093;SDS011;19964;42.060;24.700;2023-07-16T11:39:47;11.75;;;9.88;;
6093;SDS011;19964;42.060;24.700;2023-07-16T11:42:20;11.00;;;9.90;;
6093;SDS011;19964;42.060;24.700;2023-07-16T11:44:50;14.25;;;10.52;;
6093;SDS011;19964;42.060;24.700;2023-07-16T11:47:17;12.77;;;10.32;;
6093;SDS011;19964;42.060;24.700;2023-07-16T11:49:44;11.18;;;10.18;;
6093;SDS011;19964;42.060;24.700;2023-07-16T11:52:10;11.20;;;10.02;;
6093;SDS011;19964;42.060;24.700;2023-07-16T11:54:37;12.35;;;10.93;;
6093;SDS011;19964;42.060;24.700;2023-07-16T11:57:05;12.43;;;11.13;;
6093;SDS011;19964;42.060;24.700;2023-07-16T11:59:34;12.00;;;10.60;;
6093;SDS011;19964;42.060;24.700;2023-07-16T12:02:00;11.25;;;10.10;;
6093;SDS011;19964;42.060;24.700;2023-07-16T12:04:29;12.13;;;10.40;;
6093;SDS011;19964;42.060;24.700;2023-07-16T12:06:55;14.13;;;10.63;;
6093;SDS011;19964;42.060;24.700;2023-07-16T12:09:22;15.38;;;9.95;;
6093;SDS011;19964;42.060;24.700;2023-07-16T12:11:49;10.85;;;9.93;;
6093;SDS011;19964;42.060;24.700;2023-07-16T12:14:16;11.82;;;10.57;;
6093;SDS011;19964;42.060;24.700;2023-07-16T12:16:45;11.10;;;9.90;;
6093;SDS011;19964;42.060;24.700;2023-07-16T12:19:12;12.55;;;11.27;;
6093;SDS011;19964;42.060;24.700;2023-07-16T12:21:38;12.18;;;10.95;;
6093;SDS011;19964;42.060;24.700;2023-07-16T12:24:05;13.95;;;11.82;;
6093;SDS011;19964;42.060;24.700;2023-07-16T12:26:32;13.25;;;12.05;;
6093;SDS011;19964;42.060;24.700;2023-07-16T12:28:59;13.15;;;11.55;;
6093;SDS011;19964;42.060;24.700;2023-07-16T12:31:28;12.40;;;11.30;;
6093;SDS011;19964;42.060;24.700;2023-07-16T12:33:56;12.65;;;11.50;;
6093;SDS011;19964;42.060;24.700;2023-07-16T12:36:23;14.98;;;12.82;;
6093;SDS011;19964;42.060;24.700;2023-07-16T12:38:50;14.38;;;12.95;;
6093;SDS011;19964;42.060;24.700;2023-07-16T12:41:17;15.52;;;11.85;;
6093;SDS011;19964;42.060;24.700;2023-07-16T12:43:46;13.57;;;12.38;;
6093;SDS011;19964;42.060;24.700;2023-07-16T12:46:12;13.93;;;12.52;;
6093;SDS011;19964;42.060;24.700;2023-07-16T12:48:39;13.95;;;12.70;;
6093;SDS011;19964;42.060;24.700;2023-07-16T12:51:08;14.13;;;12.63;;
6093;SDS011;19964;42.060;24.700;2023-07-16T12:53:34;16.25;;;12.50;;
6093;SDS011;19964;42.060;24.700;2023-07-16T12:56:01;14.80;;;12.35;;
6093;SDS011;19964;42.060;24.700;2023-07-16T12:58:28;12.98;;;11.65;;
6093;SDS011;19964;42.060;24.700;2023-07-16T13:00:55;15.15;;;12.32;;
6093;SDS011;19964;42.060;24.700;2023-07-16T13:03:22;13.63;;;11.55;;
6093;SDS011;19964;42.060;24.700;2023-07-16T13:05:49;14.15;;;12.40;;
6093;SDS011;19964;42.060;24.700;2023-07-16T13:08:17;13.90;;;12.50;;
6093;SDS011;19964;42.060;24.700;2023-07-16T13:10:44;12.63;;;11.52;;
6093;SDS011;19964;42.060;24.700;2023-07-16T13:13:11;13.50;;;12.13;;
6093;SDS011;19964;42.060;24.700;2023-07-16T13:15:38;12.90;;;11.60;;
6093;SDS011;19964;42.060;24.700;2023-07-16T13:18:05;12.93;;;11.77;;
6093;SDS011;19964;42.060;24.700;2023-07-16T13:20:31;13.20;;;11.90;;
6093;SDS011;19964;42.060;24.700;2023-07-16T13:22:58;12.48;;;11.13;;
6093;SDS011;19964;42.060;24.700;2023-07-16T13:25:27;15.63;;;12.05;;
6093;SDS011;19964;42.060;24.700;2023-07-16T13:27:54;15.45;;;12.75;;
6093;SDS011;19964;42.060;24.700;2023-07-16T13:30:21;15.32;;;11.88;;
6093;SDS011;19964;42.060;24.700;2023-07-16T13:32:48;16.25;;;11.85;;
6093;SDS011;19964;42.060;24.700;2023-07-16T13:35:15;12.82;;;11.15;;
6093;SDS011;19964;42.060;24.700;2023-07-16T13:37:42;12.57;;;11.38;;
6093;SDS011;19964;42.060;24.700;2023-07-16T13:40:09;12.15;;;10.95;;
6093;SDS011;19964;42.060;24.700;2023-07-16T13:42:38;16.45;;;12.40;;
6093;SDS011;19964;42.060;24.700;2023-07-16T13:45:05;15.48;;;11.50;;
6093;SDS011;19964;42.060;24.700;2023-07-16T13:47:32;13.23;;;11.88;;
6093;SDS011;19964;42.060;24.700;2023-07-16T13:49:59;14.38;;;11.20;;
6093;SDS011;19964;42.060;24.700;2023-07-16T13:52:27;15.40;;;11.50;;
6093;SDS011;19964;42.060;24.700;2023-07-16T13:54:53;13.02;;;11.77;;
6093;SDS011;19964;42.060;24.700;2023-07-16T13:57:21;11.95;;;10.70;;
6093;SDS011;19964;42.060;24.700;2023-07-16T13:59:49;17.17;;;11.10;;
6093;SDS011;19964;42.060;24.700;2023-07-16T14:02:16;12.13;;;11.02;;
6093;SDS011;19964;42.060;24.700;2023-07-16T14:04:44;12.90;;;11.38;;
6093;SDS011;19964;42.060;24.700;2023-07-16T14:07:10;12.85;;;10.63;;
6093;SDS011;19964;42.060;24.700;2023-07-16T14:09:37;11.40;;;10.30;;
6093;SDS011;19964;42.060;24.700;2023-07-16T14:12:04;15.15;;;10.90;;
6093;SDS011;19964;42.060;24.700;2023-07-16T14:14:32;15.25;;;10.32;;
6093;SDS011;19964;42.060;24.700;2023-07-16T14:17:00;11.48;;;10.45;;
6093;SDS011;19964;42.060;24.700;2023-07-16T14:19:28;12.25;;;10.98;;
6093;SDS011;19964;42.060;24.700;2023-07-16T14:21:55;11.63;;;10.15;;
6093;SDS011;19964;42.060;24.700;2023-07-16T14:24:22;12.35;;;11.00;;
6093;SDS011;19964;42.060;24.700;2023-07-16T14:26:49;11.32;;;10.23;;
6093;SDS011;19964;42.060;24.700;2023-07-16T14:29:16;12.02;;;10.80;;
6093;SDS011;19964;42.060;24.700;2023-07-16T14:31:43;16.77;;;10.27;;
6093;SDS011;19964;42.060;24.700;2023-07-16T14:34:11;13.98;;;10.20;;
6093;SDS011;19964;42.060;24.700;2023-07-16T14:36:40;11.77;;;10.30;;
6093;SDS011;19964;42.060;24.700;2023-07-16T14:39:07;12.65;;;10.80;;
6093;SDS011;19964;42.060;24.700;2023-07-16T14:41:34;11.25;;;10.25;;
6093;SDS011;19964;42.060;24.700;2023-07-16T14:44:00;13.00;;;9.68;;
6093;SDS011;19964;42.060;24.700;2023-07-16T14:46:28;12.50;;;10.02;;
6093;SDS011;19964;42.060;24.700;2023-07-16T14:48:55;11.13;;;9.90;;
6093;SDS011;19964;42.060;24.700;2023-07-16T14:51:24;12.85;;;9.70;;
6093;SDS011;19964;42.060;24.700;2023-07-16T14:53:51;10.40;;;9.30;;
6093;SDS011;19964;42.060;24.700;2023-07-16T14:56:18;11.65;;;9.60;;
6093;SDS011;19964;42.060;24.700;2023-07-16T15:01:12;14.43;;;9.30;;
6093;SDS011;19964;42.060;24.700;2023-07-16T15:03:39;10.00;;;8.95;;
6093;SDS011;19964;42.060;24.700;2023-07-16T15:06:06;8.98;;;8.27;;
6093;SDS011;19964;42.060;24.700;2023-07-16T15:08:34;9.52;;;8.75;;
6093;SDS011;19964;42.060;24.700;2023-07-16T15:28:10;9.75;;;8.10;;
6093;SDS011;19964;42.060;24.700;2023-07-16T15:30:37;9.80;;;8.20;;
6093;SDS011;19964;42.060;24.700;2023-07-16T15:33:03;12.30;;;8.57;;
6093;SDS011;19964;42.060;24.700;2023-07-16T15:35:30;8.95;;;8.00;;
6093;SDS011;19964;42.060;24.700;2023-07-16T15:37:57;8.93;;;8.07;;
6093;SDS011;19964;42.060;24.700;2023-07-16T15:40:27;10.55;;;8.07;;
6093;SDS011;19964;42.060;24.700;2023-07-16T15:42:59;9.45;;;7.95;;
6093;SDS011;19964;42.060;24.700;2023-07-16T15:45:27;9.00;;;8.13;;
6093;SDS011;19964;42.060;24.700;2023-07-16T15:47:54;12.13;;;8.63;;
6093;SDS011;19964;42.060;24.700;2023-07-16T15:50:26;10.32;;;8.60;;
6093;SDS011;19964;42.060;24.700;2023-07-16T15:52:54;9.20;;;8.27;;
6093;SDS011;19964;42.060;24.700;2023-07-16T15:55:21;10.60;;;8.70;;
6093;SDS011;19964;42.060;24.700;2023-07-16T15:57:49;11.25;;;8.38;;
6093;SDS011;19964;42.060;24.700;2023-07-16T16:00:17;10.38;;;7.82;;
6093;SDS011;19964;42.060;24.700;2023-07-16T16:02:47;9.93;;;7.75;;
6093;SDS011;19964;42.060;24.700;2023-07-16T16:05:14;10.00;;;7.28;;
6093;SDS011;19964;42.060;24.700;2023-07-16T16:07:42;12.55;;;7.82;;
6093;SDS011;19964;42.060;24.700;2023-07-16T16:10:11;8.50;;;7.63;;
6093;SDS011;19964;42.060;24.700;2023-07-16T16:12:38;7.97;;;7.25;;
6093;SDS011;19964;42.060;24.700;2023-07-16T16:15:05;9.52;;;7.65;;
6093;SDS011;19964;42.060;24.700;2023-07-16T16:17:34;7.93;;;7.20;;
6093;SDS011;19964;42.060;24.700;2023-07-16T16:20:01;9.65;;;7.20;;
6093;SDS011;19964;42.060;24.700;2023-07-16T16:22:32;10.13;;;6.93;;
6093;SDS011;19964;42.060;24.700;2023-07-16T16:24:59;12.35;;;7.45;;
6093;SDS011;19964;42.060;24.700;2023-07-16T16:27:28;7.25;;;6.65;;
6093;SDS011;19964;42.060;24.700;2023-07-16T16:29:55;8.00;;;7.05;;
6093;SDS011;19964;42.060;24.700;2023-07-16T16:32:22;9.07;;;6.93;;
6093;SDS011;19964;42.060;24.700;2023-07-16T16:34:51;14.45;;;6.95;;
6093;SDS011;19964;42.060;24.700;2023-07-16T16:37:18;13.73;;;7.32;;
6093;SDS011;19964;42.060;24.700;2023-07-16T16:39:45;6.68;;;6.18;;
6093;SDS011;19964;42.060;24.700;2023-07-16T16:42:13;10.77;;;6.78;;
6093;SDS011;19964;42.060;24.700;2023-07-16T16:44:40;7.35;;;6.45;;
6093;SDS011;19964;42.060;24.700;2023-07-16T16:47:07;7.13;;;6.53;;
6093;SDS011;19964;42.060;24.700;2023-07-16T16:49:33;8.23;;;6.07;;
6093;SDS011;19964;42.060;24.700;2023-07-16T16:52:02;7.03;;;6.43;;
6093;SDS011;19964;42.060;24.700;2023-07-16T16:54:29;8.45;;;6.85;;
6093;SDS011;19964;42.060;24.700;2023-07-16T16:56:56;9.95;;;6.60;;
6093;SDS011;19964;42.060;24.700;2023-07-16T16:59:22;9.02;;;6.50;;
6093;SDS011;19964;42.060;24.700;2023-07-16T17:01:49;7.45;;;6.68;;
6093;SDS011;19964;42.060;24.700;2023-07-16T17:04:16;8.43;;;6.15;;
6093;SDS011;19964;42.060;24.700;2023-07-16T17:06:43;11.55;;;6.30;;
6093;SDS011;19964;42.060;24.700;2023-07-16T17:09:11;7.35;;;5.95;;
6093;SDS011;19964;42.060;24.700;2023-07-16T17:11:38;7.72;;;6.35;;
6093;SDS011;19964;42.060;24.700;2023-07-16T17:14:05;10.85;;;6.65;;
6093;SDS011;19964;42.060;24.700;2023-07-16T17:16:32;9.00;;;6.88;;
6093;SDS011;19964;42.060;24.700;2023-07-16T17:18:59;6.90;;;6.30;;
6093;SDS011;19964;42.060;24.700;2023-07-16T17:21:26;6.80;;;6.03;;
6093;SDS011;19964;42.060;24.700;2023-07-16T17:23:54;7.60;;;6.90;;
6093;SDS011;19964;42.060;24.700;2023-07-16T17:26:22;8.18;;;6.60;;
6093;SDS011;19964;42.060;24.700;2023-07-16T17:28:49;8.35;;;7.65;;
6093;SDS011;19964;42.060;24.700;2023-07-16T17:31:16;7.60;;;7.00;;
6093;SDS011;19964;42.060;24.700;2023-07-16T17:33:43;7.45;;;6.75;;
6093;SDS011;19964;42.060;24.700;2023-07-16T17:36:10;7.90;;;7.20;;
6093;SDS011;19964;42.060;24.700;2023-07-16T17:38:37;7.65;;;6.90;;
6093;SDS011;19964;42.060;24.700;2023-07-16T17:41:04;13.98;;;7.15;;
6093;SDS011;19964;42.060;24.700;2023-07-16T17:43:32;7.68;;;6.90;;
6093;SDS011;19964;42.060;24.700;2023-07-16T17:45:59;8.88;;;6.72;;
6093;SDS011;19964;42.060;24.700;2023-07-16T17:48:26;7.32;;;6.63;;
6093;SDS011;19964;42.060;24.700;2023-07-16T17:50:53;7.68;;;7.03;;
6093;SDS011;19964;42.060;24.700;2023-07-16T17:53:20;8.50;;;6.70;;
6093;SDS011;19964;42.060;24.700;2023-07-16T17:55:47;7.88;;;7.18;;
6093;SDS011;19964;42.060;24.700;2023-07-16T17:58:14;11.48;;;7.40;;
6093;SDS011;19964;42.060;24.700;2023-07-16T18:00:42;9.02;;;7.53;;
6093;SDS011;19964;42.060;24.700;2023-07-16T18:03:09;11.10;;;7.47;;
6093;SDS011;19964;42.060;24.700;2023-07-16T18:05:36;8.00;;;7.30;;
6093;SDS011;19964;42.060;24.700;2023-07-16T18:08:03;7.88;;;7.05;;
6093;SDS011;19964;42.060;24.700;2023-07-16T18:10:31;8.32;;;7.57;;
6093;SDS011;19964;42.060;24.700;2023-07-16T18:12:58;8.65;;;7.50;;
6093;SDS011;19964;42.060;24.700;2023-07-16T18:15:25;9.30;;;7.35;;
6093;SDS011;19964;42.060;24.700;2023-07-16T18:17:53;7.68;;;7.00;;
6093;SDS011;19964;42.060;24.700;2023-07-16T18:20:20;8.65;;;7.25;;
6093;SDS011;19964;42.060;24.700;2023-07-16T18:22:47;8.00;;;7.40;;
6093;SDS011;19964;42.060;24.700;2023-07-16T18:25:14;8.05;;;7.35;;
6093;SDS011;19964;42.060;24.700;2023-07-16T18:27:42;8.73;;;7.82;;
6093;SDS011;19964;42.060;24.700;2023-07-16T18:30:09;10.73;;;7.93;;
6093;SDS011;19964;42.060;24.700;2023-07-16T18:32:36;8.45;;;7.72;;
6093;SDS011;19964;42.060;24.700;2023-07-16T18:35:05;9.30;;;8.20;;
6093;SDS011;19964;42.060;24.700;2023-07-16T18:37:33;9.20;;;7.97;;
6093;SDS011;19964;42.060;24.700;2023-07-16T18:40:03;9.55;;;8.63;;
6093;SDS011;19964;42.060;24.700;2023-07-16T18:42:31;8.57;;;7.65;;
6093;SDS011;19964;42.060;24.700;2023-07-16T18:44:58;8.35;;;7.68;;
6093;SDS011;19964;42.060;24.700;2023-07-16T18:47:26;10.68;;;8.68;;
6093;SDS011;19964;42.060;24.700;2023-07-16T18:49:54;8.95;;;8.15;;
6093;SDS011;19964;42.060;24.700;2023-07-16T18:52:22;9.43;;;7.63;;
6093;SDS011;19964;42.060;24.700;2023-07-16T18:54:49;12.60;;;8.25;;
6093;SDS011;19964;42.060;24.700;2023-07-16T18:57:17;10.98;;;8.35;;
6093;SDS011;19964;42.060;24.700;2023-07-16T18:59:44;8.75;;;7.85;;
6093;SDS011;19964;42.060;24.700;2023-07-16T19:02:11;8.68;;;7.82;;
6093;SDS011;19964;42.060;24.700;2023-07-16T19:04:38;9.45;;;8.55;;
6093;SDS011;19964;42.060;24.700;2023-07-16T19:07:04;11.93;;;8.40;;
6093;SDS011;19964;42.060;24.700;2023-07-16T19:09:36;8.77;;;8.15;;
6093;SDS011;19964;42.060;24.700;2023-07-16T19:12:03;8.23;;;7.60;;
6093;SDS011;19964;42.060;24.700;2023-07-16T19:14:30;11.57;;;8.13;;
6093;SDS011;19964;42.060;24.700;2023-07-16T19:17:01;9.32;;;8.43;;
6093;SDS011;19964;42.060;24.700;2023-07-16T19:19:28;9.73;;;8.60;;
6093;SDS011;19964;42.060;24.700;2023-07-16T19:21:55;9.20;;;8.38;;
6093;SDS011;19964;42.060;24.700;2023-07-16T19:24:22;9.27;;;8.48;;
6093;SDS011;19964;42.060;24.700;2023-07-16T19:26:50;9.05;;;8.20;;
6093;SDS011;19964;42.060;24.700;2023-07-16T19:29:17;9.65;;;8.52;;
6093;SDS011;19964;42.060;24.700;2023-07-16T19:31:44;9.30;;;8.10;;
6093;SDS011;19964;42.060;24.700;2023-07-16T19:34:11;9.30;;;8.40;;
6093;SDS011;19964;42.060;24.700;2023-07-16T19:36:38;9.77;;;8.80;;
6093;SDS011;19964;42.060;24.700;2023-07-16T19:39:05;9.65;;;8.65;;
6093;SDS011;19964;42.060;24.700;2023-07-16T19:41:32;9.65;;;8.85;;
6093;SDS011;19964;42.060;24.700;2023-07-16T19:44:00;9.40;;;8.48;;
6093;SDS011;19964;42.060;24.700;2023-07-16T19:46:28;8.55;;;7.90;;
6093;SDS011;19964;42.060;24.700;2023-07-16T19:48:55;9.63;;;8.82;;
6093;SDS011;19964;42.060;24.700;2023-07-16T19:51:22;9.38;;;8.68;;
6093;SDS011;19964;42.060;24.700;2023-07-16T19:53:49;9.13;;;8.38;;
6093;SDS011;19964;42.060;24.700;2023-07-16T19:56:16;9.55;;;8.60;;
6093;SDS011;19964;42.060;24.700;2023-07-16T19:58:46;9.43;;;8.50;;
6093;SDS011;19964;42.060;24.700;2023-07-16T20:01:14;10.48;;;9.23;;
6093;SDS011;19964;42.060;24.700;2023-07-16T20:03:41;9.60;;;8.60;;
6093;SDS011;19964;42.060;24.700;2023-07-16T20:06:08;10.05;;;8.85;;
6093;SDS011;19964;42.060;24.700;2023-07-16T20:08:35;9.63;;;8.73;;
6093;SDS011;19964;42.060;24.700;2023-07-16T20:11:02;9.20;;;8.35;;
6093;SDS011;19964;42.060;24.700;2023-07-16T20:13:29;9.60;;;8.70;;
6093;SDS011;19964;42.060;24.700;2023-07-16T20:15:56;9.93;;;9.13;;
6093;SDS011;19964;42.060;24.700;2023-07-16T20:23:19;13.95;;;8.98;;
6093;SDS011;19964;42.060;24.700;2023-07-16T20:25:46;9.93;;;9.00;;
6093;SDS011;19964;42.060;24.700;2023-07-16T20:28:15;9.98;;;9.10;;
6093;SDS011;19964;42.060;24.700;2023-07-16T20:30:43;12.48;;;9.20;;
6093;SDS011;19964;42.060;24.700;2023-07-16T20:33:10;10.23;;;9.23;;
6093;SDS011;19964;42.060;24.700;2023-07-16T20:35:39;9.90;;;8.93;;
6093;SDS011;19964;42.060;24.700;2023-07-16T20:38:06;9.30;;;8.50;;
6093;SDS011;19964;42.060;24.700;2023-07-16T20:40:33;11.60;;;9.45;;
6093;SDS011;19964;42.060;24.700;2023-07-16T20:43:00;9.85;;;8.88;;
6093;SDS011;19964;42.060;24.700;2023-07-16T20:45:28;13.52;;;8.48;;
6093;SDS011;19964;42.060;24.700;2023-07-16T20:47:57;11.38;;;9.90;;
6093;SDS011;19964;42.060;24.700;2023-07-16T20:50:28;11.48;;;9.88;;
6093;SDS011;19964;42.060;24.700;2023-07-16T20:52:57;10.65;;;9.57;;
6093;SDS011;19964;42.060;24.700;2023-07-16T20:55:25;10.48;;;9.38;;
6093;SDS011;19964;42.060;24.700;2023-07-16T20:57:53;11.43;;;9.48;;
6093;SDS011;19964;42.060;24.700;2023-07-16T21:00:20;9.43;;;8.50;;
6093;SDS011;19964;42.060;24.700;2023-07-16T21:02:48;10.52;;;9.02;;
6093;SDS011;19964;42.060;24.700;2023-07-16T21:05:18;10.80;;;9.80;;
6093;SDS011;19964;42.060;24.700;2023-07-16T21:07:45;9.80;;;8.90;;
6093;SDS011;19964;42.060;24.700;2023-07-16T21:10:15;14.25;;;9.40;;
6093;SDS011;19964;42.060;24.700;2023-07-16T21:12:47;10.50;;;9.45;;
6093;SDS011;19964;42.060;24.700;2023-07-16T21:15:14;10.05;;;9.25;;
6093;SDS011;19964;42.060;24.700;2023-07-16T21:17:41;11.55;;;9.52;;
6093;SDS011;19964;42.060;24.700;2023-07-16T21:20:08;12.35;;;9.95;;
6093;SDS011;19964;42.060;24.700;2023-07-16T21:22:35;10.63;;;9.57;;
6093;SDS011;19964;42.060;24.700;2023-07-16T21:25:03;11.10;;;9.45;;
6093;SDS011;19964;42.060;24.700;2023-07-16T21:27:34;10.55;;;9.38;;
6093;SDS011;19964;42.060;24.700;2023-07-16T21:30:06;11.40;;;9.68;;
6093;SDS011;19964;42.060;24.700;2023-07-16T21:32:34;10.52;;;9.73;;
6093;SDS011;19964;42.060;24.700;2023-07-16T21:35:01;10.77;;;9.88;;
6093;SDS011;19964;42.060;24.700;2023-07-16T21:37:28;11.32;;;10.32;;
6093;SDS011;19964;42.060;24.700;2023-07-16T21:39:55;10.65;;;9.70;;
6093;SDS011;19964;42.060;24.700;2023-07-16T21:42:22;11.32;;;8.98;;
6093;SDS011;19964;42.060;24.700;2023-07-16T21:44:51;13.20;;;9.85;;
6093;SDS011;19964;42.060;24.700;2023-07-16T21:47:18;14.60;;;8.70;;
6093;SDS011;19964;42.060;24.700;2023-07-16T21:49:45;11.80;;;9.05;;